Météo Cheval Rigon

 

Relevés d'aujourd'hui



 

15/2/19
Time         Wind Dir   Wind Spd  Wind Gust   Humidity       Temp   Tot Rain Wind Chill  Dew Point   Barom SL Humidity R Temp Out R Tot Rain R   WindCh R   Dew Pt R SL Barom R Temp Out H Temp Out L  DailyRain   HourRain   24HrRain   RainRate  MonthRain
                          km/hr      km/hr          %         C         mm         C         C         mb       %/hr      C/hr      mm/hr      C/hr      C/hr      mm/hr         C         C         mm         mm         mm      mm/hr         mm
0:00              155          0          3         49        7.8      71.80        7.8       -2.2    1030.08       -1.2      -1.24      0.000      -1.02      -1.45      0.084        7.8        7.8       0.00       0.00       0.00      0.000      21.20
0:15              155          0          2         43        8.8      71.80        8.8       -3.1    1030.11       -5.9      -0.14      0.000       0.04      -1.83      0.089        8.8        7.8       0.00       0.00       0.00      0.000      21.20
0:30              155          0          3         49        8.2      71.80        8.2       -1.9    1030.08        0.8      -0.62      0.000      -0.49      -0.31      0.034        8.8        7.8       0.00       0.00       0.00      0.000      21.20
0:45              155          0          2         47        8.3      71.80        8.3       -2.4    1030.11       -0.7      -0.44      0.000      -0.34      -0.56      0.060        8.8        7.8       0.00       0.00       0.00      0.000      21.20
1:00              155          2          3         49        8.2      71.80        8.2       -1.9    1030.11        1.5      -0.45      0.000      -0.37       0.02      0.050        8.8        7.8       0.00       0.00       0.00      0.000      21.20
1:15              161          2          5         50        7.6      71.80        7.6       -2.2    1030.15        2.0      -0.89      0.000      -0.82      -0.25      0.079        8.8        7.6       0.00       0.00       0.00      0.000      21.20
1:30              142          0          5         49        7.7      71.80        7.7       -2.3    1030.25        0.7      -0.51      0.000      -0.45      -0.26      0.156        8.8        7.3       0.00       0.00       0.00      0.000      21.20
1:45              136          0          5         48        7.9      71.80        7.9       -2.4    1030.35       -0.3      -0.27      0.000      -0.22      -0.31      0.218        8.8        7.3       0.00       0.00       0.00      0.000      21.20
2:00              136          2          2         48        7.4      71.80        7.4       -2.9    1030.22       -0.3      -0.64      0.000      -0.61      -0.66      0.041        8.8        7.3       0.00       0.00       0.00      0.000      21.20
2:15              132          2          3         49        7.0      71.80        7.0       -3.0    1030.28        0.8      -0.84      0.000      -0.81      -0.55      0.090        8.8        7.0       0.00       0.00       0.00      0.000      21.20
2:30              146          2          5         49        6.8      71.80        6.8       -3.2    1030.22        0.6      -0.83      0.000      -0.80      -0.60      0.023        8.8        6.7       0.00       0.00       0.00      0.000      21.20
2:45              151          3          5         47        6.8      71.80        6.8       -3.7    1030.01       -1.1      -0.59      0.000      -0.56      -0.85     -0.160        8.8        6.7       0.00       0.00       0.00      0.000      21.20
3:00              102          3          6         43        6.9      71.80        6.9       -4.8    1029.91       -4.6      -0.41      0.000      -0.37      -1.71     -0.213        8.8        6.7       0.00       0.00       0.00      0.000      21.20
3:15              105          3         11         35        8.7      71.80        8.7       -5.9    1029.81      -10.5       1.25      0.000       1.39      -2.27     -0.249        8.8        6.7       0.00       0.00       0.00      0.000      21.20
3:30              163          2         14         36        8.9      71.80        8.9       -5.3    1029.67       -7.1       1.20      0.000       1.44      -1.19     -0.313        9.0        6.7       0.00       0.00       0.00      0.000      21.20
3:45              120          0          6         36        8.4      71.80        8.4       -5.8    1029.71       -5.5       0.50      0.000       0.70      -1.31     -0.216        9.0        6.7       0.00       0.00       0.00      0.000      21.20
4:00              161          5          5         40        7.7      71.80        7.2       -5.1    1029.64       -0.7      -0.32      0.000      -0.64      -0.41     -0.226        9.0        6.7       0.00       0.00       0.00      0.000      21.20
4:15              135          2          5         43        6.8      71.80        6.8       -4.9    1029.57        2.1      -0.98      0.000      -0.84      -0.14     -0.233        9.0        6.7       0.00       0.00       0.00      0.000      21.20
4:30              135          2          3         43        6.6      71.80        6.6       -5.1    1029.51        1.5      -0.95      0.000      -0.85      -0.31     -0.249        9.0        6.6       0.00       0.00       0.00      0.000      21.20
4:45              120          5          6         40        7.3      71.80        6.7       -5.4    1029.44       -1.4      -0.13      0.000      -0.56      -0.52     -0.262        9.0        6.6       0.00       0.00       0.00      0.000      21.20
5:00              163          3          5         39        7.6      71.80        7.6       -5.5    1029.20       -1.9       0.11      0.000       0.21      -0.46     -0.420        9.0        6.6       0.00       0.00       0.00      0.000      21.20
5:15              133          3          6         42        6.9      71.80        6.9       -5.1    1029.30        1.1      -0.47      0.000      -0.36      -0.05     -0.243        9.0        6.6       0.00       0.00       0.00      0.000      21.20
5:30              148          0          5         46        6.5      71.80        6.5       -4.3    1029.27        4.6      -0.74      0.000      -0.65       0.74     -0.220        9.0        6.5       0.00       0.00       0.00      0.000      21.20
5:45              114          5          5         47        6.4      71.80        5.7       -4.1    1029.30        4.4      -0.66      0.000      -1.22       0.74     -0.135        9.0        6.3       0.00       0.00       0.00      0.000      21.20
6:00              158          2          5         46        6.6      71.80        6.6       -4.2    1029.44        2.6      -0.39      0.000      -0.31       0.47      0.010        9.0        6.3       0.00       0.00       0.00      0.000      21.20
6:15              158          3          3         48        6.4      71.80        6.4       -3.8    1029.51        4.1      -0.40      0.000      -0.35       0.85      0.063        9.0        6.3       0.00       0.00       0.00      0.000      21.20
6:30              158          0          3         47        6.3      71.80        6.3       -4.2    1029.61        2.2      -0.46      0.000      -0.42       0.24      0.142        9.0        6.3       0.00       0.00       0.00      0.000      21.20
6:45               98          2          8         45        6.8      71.80        6.8       -4.3    1029.51        0.2       0.13      0.000       0.18       0.19      0.023        9.0        6.3       0.00       0.00       0.00      0.000      21.20
7:00              178          0          5         43        7.1      71.80        7.1       -4.6    1029.20       -1.3       0.32      0.000       0.37      -0.07     -0.250        9.0        6.3       0.00       0.00       0.00      0.000      21.20
7:15              123          6          6         44        6.3      71.80        5.1       -5.0    1029.30       -0.2      -0.41      0.000      -1.55      -0.41     -0.104        9.0        6.3       0.00       0.00       0.00      0.000      21.20
7:30              142          2          6         45        7.0      71.80        7.0       -4.1    1029.27        0.7       0.26      0.000       0.32       0.48     -0.116        9.0        6.3       0.00       0.00       0.00      0.000      21.20
7:45              145          3          8         42        7.3      71.80        7.3       -4.7    1029.40       -2.1       0.49      0.000       0.57      -0.18      0.034        9.0        6.3       0.00       0.00       0.00      0.000      21.20
8:00              142          2          6         44        7.3      71.80        7.3       -4.1    1029.44        0.1       0.38      0.000       0.46       0.38      0.067        9.0        6.3       0.00       0.00       0.00      0.000      21.20
8:15              171          0          6         46        6.9      71.80        6.9       -3.9    1029.37        1.7      -0.10      0.000      -0.04       0.43      0.005        9.0        6.3       0.00       0.00       0.00      0.000      21.20
8:30              171          3          5         47        6.7      71.80        6.7       -3.8    1029.47        2.3      -0.27      0.000      -0.22       0.42      0.090        9.0        6.3       0.00       0.00       0.00      0.000      21.20
8:45              171          2          3         48        7.2      71.80        7.2       -3.1    1029.57        2.8       0.29      0.000       0.33       1.07      0.164        9.0        6.3       0.00       0.00       0.00      0.000      21.20
9:00              171          2          5         47        7.7      71.80        7.7       -2.9    1029.51        1.2       0.63      0.000       0.67       0.92      0.064        9.0        6.3       0.00       0.00       0.00      0.000      21.20
9:15              171          2          3         45        8.7      71.80        8.7       -2.5    1029.54       -0.8       1.44      0.000       1.47       1.09      0.078        9.0        6.3       0.00       0.00       0.00      0.000      21.20
9:30              173          0          3         47        9.4      71.80        9.4       -1.3    1029.40        0.9       1.71      0.000       1.73       1.83     -0.056        9.4        6.3       0.00       0.00       0.00      0.000      21.20
9:45              176          0          5         45       10.4      71.80       10.4       -1.0    1029.34       -1.1       2.28      0.000       2.30       1.75     -0.099       10.4        6.3       0.00       0.00       0.00      0.000      21.20
10:00             176          0          3         45       10.8      71.80       10.8       -0.7    1029.27       -1.3       2.06      0.000       2.08       1.50     -0.138       10.8        6.3       0.00       0.00       0.00      0.000      21.20
10:15             176          0          0         37       12.1      71.80       12.1       -2.2    1029.27       -8.2       2.76      0.000       2.77      -0.19     -0.108       12.1        6.3       0.00       0.00       0.00      0.000      21.20
10:30             178          0          2         39       13.7      71.80       13.7       -0.0    1029.37       -4.2       3.55      0.000       3.56       1.88      0.009       13.7        6.3       0.00       0.00       0.00      0.000      21.20
10:45             178          2          2         40       14.1      71.80       14.1        0.7    1029.51       -2.6       3.13      0.000       3.14       2.03      0.122       14.1        6.3       0.00       0.00       0.00      0.000      21.20
11:00             178          3          5         39       14.3      71.80       14.3        0.5    1029.51       -3.3       2.60      0.000       2.60       1.29      0.098       14.3        6.3       0.00       0.00       0.00      0.000      21.20
11:15             178          0          3         36       14.6      71.80       14.6       -0.3    1029.44       -5.4       2.32      0.000       2.33       0.21      0.010       14.6        6.3       0.00       0.00       0.00      0.000      21.20
11:30             178          0          3         42       15.1      71.80       15.1        2.3    1029.40        0.9       2.26      0.000       2.26       2.40     -0.023       15.1        6.3       0.00       0.00       0.00      0.000      21.20
11:45             178          0          5         38       15.4      71.80       15.4        1.2    1029.37       -2.5       2.05      0.000       2.06       1.02     -0.046       15.4        6.3       0.00       0.00       0.00      0.000      21.20
12:00             360          0          5         37       16.0      71.80       16.0        1.3    1029.37       -3.1       2.09      0.000       2.10       0.81     -0.038       16.0        6.3       0.00       0.00       0.00      0.000      21.20
12:15             360          3          5         44       16.5      71.80       16.5        4.2    1029.27        3.9       2.08      0.000       2.08       3.25     -0.128       16.5        6.3       0.00       0.00       0.00      0.000      21.20
12:30             355          3          5         39       17.1      71.80       17.1        3.0    1029.17       -1.2       2.10      0.000       2.10       1.50     -0.190       17.1        6.3       0.00       0.00       0.00      0.000      21.20
12:45             355          3          5         35       17.3      71.80       17.3        1.7    1029.03       -4.7       1.89      0.000       1.89      -0.06     -0.261       17.3        6.3       0.00       0.00       0.00      0.000      21.20
13:00             355          0          5         40       17.7      71.80       17.7        3.9    1028.93        1.2       1.76      0.000       1.76       2.06     -0.292       17.7        6.3       0.00       0.00       0.00      0.000      21.20
13:15             355          3          3         39       18.1      71.80       18.1        3.9    1028.76        1.1       1.72      0.000       1.72       2.00     -0.382       18.1        6.3       0.00       0.00       0.00      0.000      21.20
13:30             355          0          3         35       18.7      71.80       18.7        3.0    1028.56       -2.3       1.91      0.000       1.91       0.86     -0.481       18.7        6.3       0.00       0.00       0.00      0.000      21.20
13:45             355          3          3         32       19.1      71.80       19.1        2.0    1028.35       -4.4       1.83      0.000       1.83      -0.11     -0.559       19.1        6.3       0.00       0.00       0.00      0.000      21.20
14:00             355          2          5         32       19.3      71.80       19.3        2.2    1028.18       -3.6       1.58      0.000       1.58      -0.02     -0.587       19.3        6.3       0.00       0.00       0.00      0.000      21.20
14:15             355          6          6         37       19.5      71.80       19.5        4.4    1028.08        1.9       1.42      0.000       1.42       2.07     -0.541       19.5        6.3       0.00       0.00       0.00      0.000      21.20
14:30             355          0          6         36       19.8      71.80       19.8        4.3    1027.88        0.9       1.40      0.000       1.40       1.64     -0.592       19.8        6.3       0.00       0.00       0.00      0.000      21.20
14:45             350          2          5         39       20.0      71.80       20.0        5.6    1027.74        3.2       1.22      0.000       1.22       2.35     -0.586       20.1        6.3       0.00       0.00       0.00      0.000      21.20
15:00             349          3          6         40       19.9      71.80       19.9        6.0    1027.58        3.4       0.91      0.000       0.91       2.13     -0.608       20.1        6.3       0.00       0.00       0.00      0.000      21.20
15:15             333          0          6         42       19.7      71.80       19.7        6.5    1027.54        4.7       0.51      0.000       0.51       2.19     -0.500       20.1        6.3       0.00       0.00       0.00      0.000      21.20
15:30             335          0          6         41       19.9      71.80       19.9        6.3    1027.41        2.7       0.60      0.000       0.60       1.56     -0.508       20.1        6.3       0.00       0.00       0.00      0.000      21.20
15:45             335          0          5         43       19.8      71.80       19.8        6.9    1027.37        4.0       0.31      0.000       0.31       1.73     -0.428       20.1        6.3       0.00       0.00       0.00      0.000      21.20
16:00             335          2          5         43       19.4      71.80       19.4        6.5    1027.27        3.6      -0.10      0.000      -0.10       1.20     -0.424       20.1        6.3       0.00       0.00       0.00      0.000      21.20
16:15             335          0          3         42       19.4      71.80       19.4        6.2    1027.20        2.0      -0.08      0.000      -0.08       0.68     -0.390       20.1        6.3       0.00       0.00       0.00      0.000      21.20
16:30             335          0          5         41       19.1      71.80       19.1        5.5    1027.03        0.7      -0.38      0.000      -0.38      -0.05     -0.460       20.1        6.3       0.00       0.00       0.00      0.000      21.20
16:45             335          2          2         43       18.7      71.80       18.7        5.8    1027.03        2.2      -0.64      0.000      -0.64       0.23     -0.364       20.1        6.3       0.00       0.00       0.00      0.000      21.20
17:00             335          0          2         44       18.4      71.80       18.4        5.9    1027.00        2.6      -0.74      0.000      -0.74       0.23     -0.322       20.1        6.3       0.00       0.00       0.00      0.000      21.20
17:15             335          0          2         45       18.2      71.80       18.2        6.1    1026.97        2.9      -0.71      0.000      -0.71       0.34     -0.279       20.1        6.3       0.00       0.00       0.00      0.000      21.20
17:30             335          0          0         45       18.2      71.80       18.2        6.1    1026.97        2.2      -0.61      0.000      -0.61       0.21     -0.219       20.1        6.3       0.00       0.00       0.00      0.000      21.20
17:45             335          0          0         47       17.6      71.80       17.6        6.2    1027.00        3.5      -0.98      0.000      -0.98       0.25     -0.143       20.1        6.3       0.00       0.00       0.00      0.000      21.20
18:00             335          0          0         51       16.3      71.80       16.3        6.1    1027.00        6.4      -1.97      0.000      -1.97       0.19     -0.109       20.1        6.3       0.00       0.00       0.00      0.000      21.20
18:15             335          2          3         49       14.1      71.80       14.1        3.5    1027.03        3.5      -3.48      0.000      -3.48      -2.08     -0.059       20.1        6.3       0.00       0.00       0.00      0.000      21.20
18:30             335          0          3         51       12.7      71.80       12.7        2.8    1027.27        4.3      -3.94      0.000      -3.94      -2.30      0.170       20.1        6.3       0.00       0.00       0.00      0.000      21.20
18:45             336          0          3         53       11.6      71.80       11.6        2.4    1027.30        5.1      -3.99      0.000      -3.99      -2.19      0.166       20.1        6.3       0.00       0.00       0.00      0.000      21.20
19:00             136          3          5         53       11.4      71.80       11.4        2.2    1027.44        3.8      -3.29      0.000      -3.29      -1.91      0.256       20.1        6.3       0.00       0.00       0.00      0.000      21.20
19:15             107          3          6         52       11.4      71.80       11.4        1.9    1027.44        2.0      -2.57      0.000      -2.56      -1.75      0.205       20.1        6.3       0.00       0.00       0.00      0.000      21.20
19:30             130          5          6         51       11.6      71.80       11.6        1.8    1027.41        0.7      -1.80      0.000      -1.80      -1.41      0.132       20.1        6.3       0.00       0.00       0.00      0.000      21.20
19:45             115          2          6         51       11.1      71.80       11.1        1.3    1027.44        0.5      -1.89      0.000      -1.88      -1.56      0.132       20.1        6.3       0.00       0.00       0.00      0.000      21.20
20:00             128          0          5         50       10.9      71.80       10.9        0.9    1027.41       -0.6      -1.62      0.000      -1.62      -1.63      0.078       20.1        6.3       0.00       0.00       0.00      0.000      21.20

 


 

 

 

Retour accueil